createdAt,value
2023-05-14T00:00:50.029Z,100.00
2023-05-14T00:03:28.698Z,100.00
2023-05-14T00:05:56.046Z,100.00
2023-05-14T00:08:23.309Z,100.00
2023-05-14T00:10:50.311Z,100.00
2023-05-14T00:13:17.816Z,100.00
2023-05-14T00:15:45.058Z,100.00
2023-05-14T00:18:12.550Z,100.00
2023-05-14T00:20:41.430Z,100.00
2023-05-14T00:23:08.371Z,100.00
2023-05-14T00:25:36.491Z,100.00
2023-05-14T00:28:04.566Z,100.00
2023-05-14T00:30:33.225Z,100.00
2023-05-14T00:33:00.493Z,100.00
2023-05-14T00:35:27.805Z,100.00
2023-05-14T00:37:55.393Z,100.00
2023-05-14T00:40:27.020Z,100.00
2023-05-14T00:42:54.650Z,100.00
2023-05-14T00:45:22.512Z,100.00
2023-05-14T00:47:49.972Z,100.00
2023-05-14T00:50:18.254Z,100.00
2023-05-14T00:52:45.662Z,100.00
2023-05-14T00:55:16.545Z,100.00
2023-05-14T00:57:43.833Z,100.00
2023-05-14T01:00:11.553Z,100.00
2023-05-14T01:02:38.929Z,100.00
2023-05-14T01:05:07.436Z,100.00
2023-05-14T01:07:49.877Z,100.00
2023-05-14T01:10:27.315Z,100.00
2023-05-14T01:12:57.347Z,100.00
2023-05-14T01:15:29.181Z,100.00
2023-05-14T01:18:05.921Z,100.00
2023-05-14T01:20:33.404Z,100.00
2023-05-14T01:23:00.432Z,100.00
2023-05-14T01:25:28.971Z,100.00
2023-05-14T01:28:29.911Z,100.00
2023-05-14T01:31:00.414Z,100.00
2023-05-14T01:33:29.746Z,100.00
2023-05-14T01:35:58.793Z,100.00
2023-05-14T01:38:28.011Z,100.00
2023-05-14T01:40:55.927Z,100.00
2023-05-14T01:43:23.346Z,100.00
2023-05-14T01:45:51.013Z,100.00
2023-05-14T01:48:18.106Z,100.00
2023-05-14T01:50:45.936Z,100.00
2023-05-14T01:53:13.333Z,100.00
2023-05-14T01:55:40.914Z,100.00
2023-05-14T01:58:08.000Z,100.00
2023-05-14T02:00:35.247Z,100.00
2023-05-14T02:03:02.376Z,100.00
2023-05-14T02:05:29.718Z,100.00
2023-05-14T02:07:56.937Z,100.00
2023-05-14T02:10:24.612Z,100.00
2023-05-14T02:12:51.745Z,100.00
2023-05-14T02:15:19.027Z,100.00
2023-05-14T02:17:46.279Z,100.00
2023-05-14T02:20:13.888Z,100.00
2023-05-14T02:22:45.665Z,100.00
2023-05-14T02:25:13.195Z,100.00
2023-05-14T02:27:40.359Z,100.00
2023-05-14T02:30:08.706Z,100.00
2023-05-14T02:32:36.060Z,100.00
2023-05-14T02:35:03.488Z,100.00
2023-05-14T02:37:30.745Z,100.00
2023-05-14T02:39:58.396Z,100.00
2023-05-14T02:42:25.800Z,100.00
2023-05-14T02:44:53.218Z,100.00
2023-05-14T02:47:20.406Z,100.00
2023-05-14T02:49:47.757Z,100.00
2023-05-14T02:52:14.653Z,100.00
2023-05-14T02:54:42.088Z,100.00
2023-05-14T02:57:08.989Z,100.00
2023-05-14T02:59:36.523Z,100.00
2023-05-14T03:02:04.239Z,100.00
2023-05-14T03:04:31.904Z,100.00
2023-05-14T03:06:58.910Z,100.00
2023-05-14T03:09:26.405Z,100.00
2023-05-14T03:11:53.451Z,100.00
2023-05-14T03:14:20.975Z,100.00
2023-05-14T03:16:47.975Z,100.00
2023-05-14T03:19:15.398Z,100.00
2023-05-14T03:21:42.583Z,100.00
2023-05-14T03:24:09.827Z,100.00
2023-05-14T03:26:37.591Z,100.00
2023-05-14T03:29:04.783Z,100.00
2023-05-14T03:31:31.942Z,100.00
2023-05-14T03:33:59.217Z,100.00
2023-05-14T03:36:26.199Z,100.00
2023-05-14T03:38:53.752Z,100.00
2023-05-14T03:41:22.168Z,100.00
2023-05-14T03:43:49.532Z,100.00
2023-05-14T03:46:16.735Z,100.00
2023-05-14T03:48:44.140Z,100.00
2023-05-14T03:51:11.218Z,100.00
2023-05-14T03:53:38.655Z,100.00
2023-05-14T03:56:06.134Z,100.00
2023-05-14T03:58:33.394Z,100.00
2023-05-14T04:01:00.817Z,100.00
2023-05-14T04:03:28.211Z,100.00
2023-05-14T04:05:55.837Z,100.00
2023-05-14T04:08:23.086Z,100.00
2023-05-14T04:10:50.557Z,100.00
2023-05-14T04:13:17.904Z,100.00
2023-05-14T04:15:45.727Z,100.00
2023-05-14T04:18:12.980Z,100.00
2023-05-14T04:20:40.836Z,100.00
2023-05-14T04:23:08.350Z,100.00
2023-05-14T04:25:35.249Z,100.00
2023-05-14T04:28:02.598Z,100.00
2023-05-14T04:30:29.851Z,100.00
2023-05-14T04:32:57.279Z,97.92
2023-05-14T04:35:26.326Z,94.31
2023-05-14T04:37:54.539Z,92.98
2023-05-14T04:40:23.100Z,90.18
2023-05-14T04:42:50.957Z,90.73
2023-05-14T04:45:18.112Z,90.77
2023-05-14T04:47:46.855Z,89.69
2023-05-14T04:50:14.357Z,88.24
2023-05-14T04:52:42.125Z,87.11
2023-05-14T04:55:09.791Z,87.01
2023-05-14T04:57:37.333Z,89.91
2023-05-14T05:00:07.981Z,89.10
2023-05-14T05:02:35.665Z,87.32
2023-05-14T05:05:04.230Z,86.55
2023-05-14T05:07:32.111Z,85.97
2023-05-14T05:09:59.093Z,85.00
2023-05-14T05:12:30.148Z,83.90
2023-05-14T05:14:58.056Z,83.78
2023-05-14T05:17:25.560Z,82.51
2023-05-14T05:19:52.968Z,83.13
2023-05-14T05:22:20.753Z,82.51
2023-05-14T05:24:49.819Z,82.58
2023-05-14T05:27:17.507Z,82.36
2023-05-14T05:29:44.862Z,82.00
2023-05-14T05:32:12.274Z,81.19
2023-05-14T05:34:39.307Z,81.60
2023-05-14T05:37:07.108Z,82.04
2023-05-14T05:39:35.317Z,80.19
2023-05-14T05:42:02.952Z,80.97
2023-05-14T05:44:31.144Z,81.02
2023-05-14T05:46:58.547Z,80.83
2023-05-14T05:49:26.365Z,79.58
2023-05-14T05:51:53.934Z,79.63
2023-05-14T05:54:21.154Z,80.85
2023-05-14T05:56:48.642Z,80.74
2023-05-14T05:59:16.054Z,84.52
2023-05-14T06:01:43.739Z,82.33
2023-05-14T06:04:10.922Z,85.18
2023-05-14T06:06:38.481Z,85.49
2023-05-14T06:09:07.094Z,85.78
2023-05-14T06:11:34.600Z,85.57
2023-05-14T06:14:01.898Z,84.88
2023-05-14T06:16:29.702Z,83.18
2023-05-14T06:18:57.400Z,84.03
2023-05-14T06:21:25.208Z,85.28
2023-05-14T06:23:52.261Z,83.05
2023-05-14T06:26:19.801Z,81.73
2023-05-14T06:28:47.128Z,77.76
2023-05-14T06:31:14.490Z,77.28
2023-05-14T06:33:41.814Z,84.02
2023-05-14T06:36:09.588Z,80.69
2023-05-14T06:38:36.689Z,79.10
2023-05-14T06:41:04.420Z,78.89
2023-05-14T06:43:31.894Z,81.97
2023-05-14T06:46:00.534Z,84.47
2023-05-14T06:48:29.595Z,86.35
2023-05-14T06:50:58.428Z,84.62
2023-05-14T06:53:25.730Z,84.40
2023-05-14T06:55:53.324Z,82.69
2023-05-14T06:58:20.692Z,80.19
2023-05-14T07:00:48.643Z,82.08
2023-05-14T07:03:15.705Z,78.23
2023-05-14T07:05:45.020Z,81.57
2023-05-14T07:08:11.990Z,79.26
2023-05-14T07:10:39.657Z,76.90
2023-05-14T07:13:08.358Z,74.52
2023-05-14T07:15:36.217Z,72.85
2023-05-14T07:18:03.328Z,72.46
2023-05-14T07:20:30.961Z,70.92
2023-05-14T07:22:58.118Z,70.87
2023-05-14T07:25:25.399Z,70.00
2023-05-14T07:27:52.618Z,68.66
2023-05-14T07:30:20.590Z,66.80
2023-05-14T07:32:47.754Z,66.40
2023-05-14T07:35:15.149Z,67.73
2023-05-14T07:37:43.639Z,66.63
2023-05-14T07:40:12.080Z,65.69
2023-05-14T07:42:39.226Z,71.42
2023-05-14T07:45:07.471Z,75.62
2023-05-14T07:47:34.466Z,75.17
2023-05-14T07:50:02.104Z,76.62
2023-05-14T07:52:29.121Z,78.15
2023-05-14T07:54:56.737Z,79.09
2023-05-14T07:57:23.740Z,77.40
2023-05-14T07:59:51.068Z,72.25
2023-05-14T08:02:18.177Z,74.36
2023-05-14T08:04:45.810Z,75.01
2023-05-14T08:07:12.839Z,76.56
2023-05-14T08:09:40.105Z,76.19
2023-05-14T08:12:07.791Z,74.44
2023-05-14T08:14:35.233Z,76.12
2023-05-14T08:17:02.346Z,74.59
2023-05-14T08:19:29.631Z,76.57
2023-05-14T08:21:56.924Z,75.46
2023-05-14T08:24:24.174Z,73.24
2023-05-14T08:26:51.152Z,73.60
2023-05-14T08:29:18.819Z,70.35
2023-05-14T08:31:45.780Z,70.52
2023-05-14T08:34:13.079Z,72.54
2023-05-14T08:36:40.022Z,72.98
2023-05-14T08:39:07.966Z,73.93
2023-05-14T08:41:35.499Z,73.94
2023-05-14T08:44:13.999Z,68.53
2023-05-14T08:46:41.533Z,68.44
2023-05-14T08:49:19.200Z,67.39
2023-05-14T08:51:49.677Z,69.72
2023-05-14T08:54:18.171Z,69.59
2023-05-14T08:56:50.481Z,69.12
2023-05-14T08:59:19.840Z,66.93
2023-05-14T09:01:49.197Z,65.29
2023-05-14T09:04:20.874Z,65.03
2023-05-14T09:06:53.458Z,63.88
2023-05-14T09:09:22.744Z,68.03
2023-05-14T09:11:51.676Z,67.22
2023-05-14T09:14:19.804Z,66.67
2023-05-14T09:16:49.902Z,70.70
2023-05-14T09:19:21.667Z,68.00
2023-05-14T09:21:49.689Z,64.60
2023-05-14T09:24:21.709Z,63.14
2023-05-14T09:26:57.055Z,58.92
2023-05-14T09:29:26.358Z,56.60
2023-05-14T09:31:54.679Z,61.82
2023-05-14T09:34:29.633Z,62.82
2023-05-14T09:37:02.264Z,62.91
2023-05-14T09:39:30.065Z,64.22
2023-05-14T09:41:57.432Z,64.17
2023-05-14T09:44:25.493Z,64.12
2023-05-14T09:46:53.429Z,63.03
2023-05-14T09:49:21.274Z,62.38
2023-05-14T09:51:51.826Z,61.11
2023-05-14T09:54:19.162Z,59.50
2023-05-14T09:56:46.443Z,59.96
2023-05-14T09:59:14.211Z,59.26
2023-05-14T10:01:44.843Z,58.49
2023-05-14T10:04:13.110Z,58.32
2023-05-14T10:06:42.271Z,56.77
2023-05-14T10:09:13.242Z,55.70
2023-05-14T10:11:45.623Z,53.14
2023-05-14T10:14:41.686Z,51.54
2023-05-14T10:17:18.235Z,50.35
2023-05-14T10:19:54.218Z,48.74
2023-05-14T10:22:23.910Z,52.08
2023-05-14T10:24:55.159Z,50.82
2023-05-14T10:27:22.683Z,49.07
2023-05-14T10:29:54.718Z,49.88
2023-05-14T10:32:25.264Z,47.80
2023-05-14T10:34:53.309Z,48.57
2023-05-14T10:37:27.092Z,50.54
2023-05-14T10:39:58.854Z,51.42
2023-05-14T10:42:43.637Z,48.49
2023-05-14T10:45:13.120Z,48.08
2023-05-14T10:47:43.249Z,48.92
2023-05-14T10:50:12.913Z,46.68
2023-05-14T10:52:43.782Z,49.18
2023-05-14T10:55:14.866Z,47.05
2023-05-14T10:57:43.897Z,50.23
2023-05-14T11:00:12.689Z,46.76
2023-05-14T11:02:41.367Z,46.61
2023-05-14T11:05:11.683Z,46.90
2023-05-14T11:07:43.211Z,47.06
2023-05-14T11:10:15.779Z,46.37
2023-05-14T11:12:47.808Z,45.38
2023-05-14T11:15:17.489Z,43.38
2023-05-14T11:17:46.242Z,43.92
2023-05-14T11:20:14.578Z,45.94
2023-05-14T11:22:43.312Z,44.81
2023-05-14T11:25:11.451Z,46.57
2023-05-14T11:27:39.556Z,49.17
2023-05-14T11:30:13.388Z,49.23
2023-05-14T11:32:41.157Z,47.69
2023-05-14T11:35:08.663Z,47.40
2023-05-14T11:37:35.987Z,45.79
2023-05-14T11:40:06.745Z,48.15
2023-05-14T11:42:33.878Z,50.16
2023-05-14T11:45:01.493Z,48.05
2023-05-14T11:47:29.738Z,48.63
2023-05-14T11:49:57.272Z,46.45
2023-05-14T11:52:24.449Z,46.11
2023-05-14T11:54:51.801Z,46.88
2023-05-14T11:57:21.132Z,46.64
2023-05-14T11:59:49.884Z,46.40
2023-05-14T12:02:19.340Z,49.31
2023-05-14T12:04:51.806Z,46.39
2023-05-14T12:07:18.872Z,47.67
2023-05-14T12:09:49.951Z,48.29
2023-05-14T12:12:22.206Z,48.63
2023-05-14T12:14:50.702Z,48.83
2023-05-14T12:17:22.914Z,50.04
2023-05-14T12:19:51.948Z,50.68
2023-05-14T12:22:20.832Z,48.06
2023-05-14T12:24:59.104Z,48.83
2023-05-14T12:27:27.792Z,49.55
2023-05-14T12:32:46.181Z,48.68
2023-05-14T12:35:13.639Z,47.61
2023-05-14T12:37:40.924Z,48.69
2023-05-14T12:40:11.883Z,46.39
2023-05-14T12:42:38.968Z,44.16
2023-05-14T12:45:08.655Z,45.97
2023-05-14T12:47:37.226Z,47.05
2023-05-14T12:50:06.227Z,48.68
2023-05-14T12:52:38.401Z,49.69
2023-05-14T12:55:09.171Z,49.09
2023-05-14T12:57:37.858Z,48.38
2023-05-14T13:00:12.212Z,47.87
2023-05-14T13:02:42.516Z,49.33
2023-05-14T13:05:12.394Z,50.09
2023-05-14T13:07:39.536Z,49.50
2023-05-14T13:10:07.317Z,48.17
2023-05-14T13:12:34.425Z,48.83
2023-05-14T13:15:02.335Z,47.95
2023-05-14T13:17:29.818Z,47.31
2023-05-14T13:19:57.523Z,49.07
2023-05-14T13:22:24.612Z,49.52
2023-05-14T13:24:52.043Z,48.92
2023-05-14T13:27:19.499Z,51.21
2023-05-14T13:29:46.713Z,49.69
2023-05-14T13:32:13.844Z,50.05
2023-05-14T13:34:41.505Z,47.54
2023-05-14T13:37:08.516Z,48.98
2023-05-14T13:39:35.888Z,48.92
2023-05-14T13:42:02.919Z,50.23
2023-05-14T13:44:30.519Z,52.38
2023-05-14T13:46:57.859Z,49.40
2023-05-14T13:49:25.301Z,46.78
2023-05-14T13:51:52.281Z,46.48
2023-05-14T13:54:19.644Z,46.54
2023-05-14T13:56:46.852Z,46.23
2023-05-14T13:59:14.832Z,45.57
2023-05-14T14:01:43.494Z,44.93
2023-05-14T14:04:11.227Z,44.78
2023-05-14T14:06:38.273Z,44.94
2023-05-14T14:09:05.629Z,45.59
2023-05-14T14:11:32.717Z,46.17
2023-05-14T14:14:00.179Z,46.91
2023-05-14T14:16:27.389Z,46.40
2023-05-14T14:18:54.847Z,46.73
2023-05-14T14:21:22.108Z,47.22
2023-05-14T14:23:49.908Z,47.75
2023-05-14T14:26:16.968Z,47.25
2023-05-14T14:28:44.270Z,47.86
2023-05-14T14:31:11.581Z,47.73
2023-05-14T14:33:39.058Z,48.84
2023-05-14T14:36:06.670Z,48.60
2023-05-14T14:38:34.271Z,48.88
2023-05-14T14:41:03.366Z,50.26
2023-05-14T14:43:30.863Z,50.61
2023-05-14T14:45:57.925Z,51.58
2023-05-14T14:48:34.386Z,51.72
2023-05-14T14:51:01.720Z,51.98
2023-05-14T14:53:29.558Z,52.35
2023-05-14T14:55:57.667Z,52.18
2023-05-14T14:58:25.188Z,53.13
2023-05-14T15:00:56.242Z,53.63
2023-05-14T15:03:24.731Z,52.84
2023-05-14T15:05:53.674Z,52.88
2023-05-14T15:08:26.776Z,52.14
2023-05-14T15:10:54.932Z,53.54
2023-05-14T15:13:22.545Z,53.56
2023-05-14T15:15:50.990Z,53.92
2023-05-14T15:18:18.571Z,54.69
2023-05-14T15:20:46.188Z,54.29
2023-05-14T15:23:13.547Z,55.24
2023-05-14T15:25:40.620Z,55.11
2023-05-14T15:28:12.961Z,55.67
2023-05-14T15:30:40.210Z,56.33
2023-05-14T15:33:08.103Z,55.79
2023-05-14T15:35:35.217Z,56.82
2023-05-14T15:38:02.628Z,56.38
2023-05-14T15:40:29.796Z,56.18
2023-05-14T15:42:57.414Z,57.21
2023-05-14T15:45:24.384Z,57.11
2023-05-14T15:47:51.975Z,57.02
2023-05-14T15:50:19.430Z,57.03
2023-05-14T15:52:47.043Z,58.69
2023-05-14T15:55:14.229Z,58.04
2023-05-14T15:57:41.768Z,58.63
2023-05-14T16:00:12.140Z,58.14
2023-05-14T16:02:39.935Z,58.06
2023-05-14T16:05:08.370Z,58.56
2023-05-14T16:07:36.357Z,58.21
2023-05-14T16:10:04.073Z,58.78
2023-05-14T16:12:31.674Z,58.80
2023-05-14T16:14:58.642Z,58.33
2023-05-14T16:17:30.627Z,58.20
2023-05-14T16:19:57.794Z,57.58
2023-05-14T16:22:25.158Z,57.29
2023-05-14T16:24:52.418Z,57.96
2023-05-14T16:27:19.838Z,57.33
2023-05-14T16:29:47.570Z,58.53
2023-05-14T16:32:15.204Z,58.45
2023-05-14T16:34:47.538Z,59.11
2023-05-14T16:37:15.278Z,59.04
2023-05-14T16:39:43.062Z,58.80
2023-05-14T16:42:10.646Z,59.79
2023-05-14T16:44:37.717Z,60.22
2023-05-14T16:47:05.576Z,60.10
2023-05-14T16:49:32.932Z,60.75
2023-05-14T16:52:00.696Z,61.00
2023-05-14T16:54:28.433Z,62.06
2023-05-14T16:56:56.117Z,65.48
2023-05-14T16:59:23.492Z,66.50
2023-05-14T17:01:53.664Z,67.52
2023-05-14T17:04:21.492Z,72.03
2023-05-14T17:06:49.273Z,75.44
2023-05-14T17:09:17.188Z,76.29
2023-05-14T17:11:44.743Z,79.26
2023-05-14T17:14:11.808Z,78.75
2023-05-14T17:16:44.151Z,83.44
2023-05-14T17:19:12.061Z,80.13
2023-05-14T17:21:39.855Z,76.92
2023-05-14T17:24:07.158Z,75.50
2023-05-14T17:26:34.509Z,76.02
2023-05-14T17:29:02.481Z,75.58
2023-05-14T17:31:30.012Z,67.43
2023-05-14T17:33:57.056Z,61.87
2023-05-14T17:36:24.359Z,60.78
2023-05-14T17:38:51.326Z,62.78
2023-05-14T17:41:18.700Z,58.29
2023-05-14T17:43:45.644Z,58.11
2023-05-14T17:46:12.933Z,59.68
2023-05-14T17:48:39.934Z,60.71
2023-05-14T17:51:07.314Z,61.87
2023-05-14T17:53:34.523Z,66.06
2023-05-14T17:56:01.971Z,66.67
2023-05-14T17:58:29.137Z,68.19
2023-05-14T18:00:56.658Z,65.69
2023-05-14T18:03:24.048Z,64.52
2023-05-14T18:05:54.999Z,66.38
2023-05-14T18:08:21.981Z,68.13
2023-05-14T18:10:49.240Z,68.51
2023-05-14T18:13:16.259Z,69.92
2023-05-14T18:15:43.642Z,66.41
2023-05-14T18:18:11.113Z,67.27
2023-05-14T18:20:38.565Z,68.47
2023-05-14T18:23:05.601Z,70.72
2023-05-14T18:25:33.490Z,70.27
2023-05-14T18:28:01.810Z,72.04
2023-05-14T18:30:29.518Z,75.20
2023-05-14T18:32:56.699Z,74.94
2023-05-14T18:35:24.706Z,78.72
2023-05-14T18:37:51.971Z,81.37
2023-05-14T18:40:23.357Z,81.10
2023-05-14T18:42:50.561Z,85.42
2023-05-14T18:45:20.494Z,87.42
2023-05-14T18:47:48.064Z,89.01
2023-05-14T18:50:15.553Z,93.85
2023-05-14T18:52:42.474Z,91.75
2023-05-14T18:55:09.957Z,100.00
2023-05-14T18:57:37.439Z,100.00
2023-05-14T19:00:05.371Z,100.00
2023-05-14T19:02:32.548Z,100.00
2023-05-14T19:05:00.230Z,100.00
2023-05-14T19:07:27.880Z,100.00
2023-05-14T19:09:55.154Z,100.00
2023-05-14T19:12:22.234Z,100.00
2023-05-14T19:14:49.479Z,100.00
2023-05-14T19:17:20.627Z,100.00
2023-05-14T19:19:48.002Z,100.00
2023-05-14T19:22:15.162Z,100.00
2023-05-14T19:24:42.523Z,100.00
2023-05-14T19:27:09.585Z,100.00
2023-05-14T19:29:39.645Z,100.00
2023-05-14T19:32:07.317Z,100.00
2023-05-14T19:34:34.795Z,100.00
2023-05-14T19:37:01.792Z,100.00
2023-05-14T19:39:29.235Z,100.00
2023-05-14T19:41:56.600Z,100.00
2023-05-14T19:44:24.117Z,100.00
2023-05-14T19:46:51.190Z,100.00
2023-05-14T19:49:19.152Z,100.00
2023-05-14T19:51:46.214Z,100.00
2023-05-14T19:54:13.775Z,100.00
2023-05-14T19:56:40.738Z,100.00
2023-05-14T19:59:08.015Z,100.00
2023-05-14T20:01:35.010Z,100.00
2023-05-14T20:04:02.693Z,100.00
2023-05-14T20:06:29.839Z,100.00
2023-05-14T20:08:57.315Z,100.00
2023-05-14T20:11:24.330Z,100.00
2023-05-14T20:13:51.707Z,100.00
2023-05-14T20:16:18.838Z,100.00
2023-05-14T20:18:46.259Z,100.00
2023-05-14T20:21:13.407Z,100.00
2023-05-14T20:23:41.003Z,100.00
2023-05-14T20:26:08.132Z,100.00
2023-05-14T20:28:35.493Z,100.00
2023-05-14T20:31:04.362Z,100.00
2023-05-14T20:33:31.748Z,100.00
2023-05-14T20:35:58.736Z,100.00
2023-05-14T20:38:29.482Z,100.00
2023-05-14T20:40:56.688Z,100.00
2023-05-14T20:43:24.275Z,100.00
2023-05-14T20:45:51.546Z,100.00
2023-05-14T20:48:21.313Z,100.00
2023-05-14T20:50:48.424Z,100.00
2023-05-14T20:53:15.968Z,100.00
2023-05-14T20:55:44.785Z,100.00
2023-05-14T20:58:12.161Z,100.00
2023-05-14T21:00:39.459Z,100.00
2023-05-14T21:03:07.073Z,100.00
2023-05-14T21:05:34.817Z,100.00
2023-05-14T21:08:02.159Z,100.00
2023-05-14T21:10:29.088Z,100.00
2023-05-14T21:12:56.729Z,100.00
2023-05-14T21:15:23.992Z,100.00
2023-05-14T21:17:51.352Z,100.00
2023-05-14T21:20:18.523Z,100.00
2023-05-14T21:22:45.973Z,100.00
2023-05-14T21:25:13.087Z,100.00
2023-05-14T21:27:40.415Z,100.00
2023-05-14T21:30:08.130Z,100.00
2023-05-14T21:32:35.539Z,100.00
2023-05-14T21:35:03.087Z,100.00
2023-05-14T21:37:30.651Z,100.00
2023-05-14T21:39:57.783Z,100.00
2023-05-14T21:42:25.257Z,100.00
2023-05-14T21:44:52.280Z,100.00
2023-05-14T21:47:21.167Z,100.00
2023-05-14T21:49:48.362Z,100.00
2023-05-14T21:52:15.679Z,100.00
2023-05-14T21:54:42.682Z,100.00
2023-05-14T21:57:09.901Z,100.00
2023-05-14T21:59:37.201Z,100.00
2023-05-14T22:02:07.210Z,100.00
2023-05-14T22:04:35.419Z,100.00
2023-05-14T22:07:03.402Z,100.00
2023-05-14T22:09:30.706Z,100.00
2023-05-14T22:11:58.516Z,100.00
2023-05-14T22:14:27.399Z,100.00
2023-05-14T22:16:54.725Z,100.00
2023-05-14T22:19:22.484Z,100.00
2023-05-14T22:21:49.782Z,100.00
2023-05-14T22:24:16.688Z,100.00
2023-05-14T22:26:44.221Z,100.00
2023-05-14T22:29:11.363Z,100.00
2023-05-14T22:31:38.640Z,100.00
2023-05-14T22:34:05.928Z,100.00
2023-05-14T22:36:33.200Z,100.00
2023-05-14T22:39:00.137Z,100.00
2023-05-14T22:41:27.803Z,100.00
2023-05-14T22:43:54.705Z,100.00
2023-05-14T22:46:21.980Z,100.00
2023-05-14T22:48:49.399Z,100.00
2023-05-14T22:51:16.762Z,100.00
2023-05-14T22:53:43.740Z,100.00
2023-05-14T22:56:11.094Z,100.00
2023-05-14T22:58:38.009Z,100.00
2023-05-14T23:01:05.459Z,100.00
2023-05-14T23:03:32.466Z,100.00
2023-05-14T23:05:59.776Z,100.00
2023-05-14T23:08:27.003Z,100.00
2023-05-14T23:10:54.294Z,100.00
2023-05-14T23:13:21.406Z,100.00
2023-05-14T23:15:49.007Z,100.00
2023-05-14T23:18:16.316Z,100.00
2023-05-14T23:20:43.927Z,100.00
2023-05-14T23:23:11.270Z,100.00
2023-05-14T23:25:38.840Z,100.00
2023-05-14T23:28:06.206Z,100.00
2023-05-14T23:30:33.512Z,100.00
2023-05-14T23:33:00.609Z,100.00
2023-05-14T23:35:28.226Z,100.00
2023-05-14T23:37:55.498Z,100.00
2023-05-14T23:40:22.970Z,100.00
2023-05-14T23:42:50.657Z,100.00
2023-05-14T23:45:17.914Z,100.00
2023-05-14T23:47:45.126Z,100.00
2023-05-14T23:50:12.513Z,100.00
2023-05-14T23:52:39.589Z,100.00
2023-05-14T23:55:07.265Z,100.00
2023-05-14T23:57:34.166Z,100.00
